Data for 11/17/2005

Time Sea-Level Adjusted Pressure Absolute Pressure Temperature Relative Humidity Dew Point   
(mb) (inHg) (mb) (inHg) (C) (F) (%) (C) (F)
00:05 1024 30.24 853 25.19 1.1 34 88 -0.7 30.8
00:10 1024 30.24 853 25.19 1.1 33.9 90 -0.5 31.2
00:15 1024 30.24 853 25.19 1 33.8 90 -0.5 31.2
00:20 1024 30.24 854 25.22 1 33.8 91 -0.4 31.3
00:25 1024 30.24 854 25.22 1 33.9 91 -0.3 31.5
00:30 1024 30.24 854 25.22 1 33.8 91 -0.2 31.6
00:35 1025 30.27 854 25.22 1 33.9 90 -0.4 31.3
00:40 1025 30.27 854 25.22 1 33.7 91 -0.3 31.5
00:45 1025 30.27 854 25.22 0.8 33.4 93 -0.2 31.6
00:50 1025 30.27 854 25.22 0.8 33.4 93 -0.2 31.6
00:55 1025 30.27 854 25.22 0.8 33.4 93 -0.2 31.6
01:00 1025 30.27 854 25.22 0.8 33.4 93 -0.2 31.7
01:05 1025 30.27 854 25.22 0.7 33.3 93 -0.2 31.6
01:10 1025 30.27 854 25.22 0.8 33.4 93 -0.2 31.6
01:15 1025 30.27 854 25.22 0.7 33.3 93 -0.3 31.5
01:20 1025 30.27 854 25.22 0.8 33.4 93 -0.3 31.5
01:25 1025 30.27 854 25.22 0.9 33.7 91 -0.4 31.3
01:30 1025 30.27 854 25.22 1 33.8 90 -0.4 31.2
01:35 1025 30.27 854 25.22 1 33.9 90 -0.5 31.2
01:40 1025 30.27 854 25.22 1.1 33.9 90 -0.5 31.2
01:45 1025 30.27 855 25.25 1.1 34 89 -0.5 31
01:50 1025 30.27 855 25.25 1.2 34.2 88 -0.6 30.9
01:55 1025 30.27 855 25.25 1.2 34.2 88 -0.5 31
02:00 1026 30.3 855 25.25 1.2 34.1 89 -0.5 31.1
02:05 1026 30.3 855 25.25 1.1 34.1 88 -0.7 30.8
02:10 1026 30.3 855 25.25 1.3 34.3 87 -0.7 30.8
02:15 1026 30.3 855 25.25 1.3 34.3 86 -0.8 30.6
02:20 1026 30.3 855 25.25 1.3 34.3 86 -0.9 30.4
02:25 1026 30.3 855 25.25 1.3 34.4 85 -1 30.3
02:30 1026 30.3 855 25.25 1.2 34.1 86 -0.9 30.4
02:35 1026 30.3 855 25.25 1.1 33.9 86 -1 30.2
02:40 1026 30.3 855 25.25 1.1 33.9 86 -1 30.1
02:45 1026 30.3 855 25.25 1.1 34.1 85 -1.2 29.9
02:50 1026 30.3 855 25.25 1.2 34.2 84 -1.1 30
02:55 1026 30.3 856 25.28 1.1 34 85 -1.1 30
03:00 1026 30.3 856 25.28 1.2 34.1 86 -0.8 30.5
03:05 1026 30.3 856 25.28 1.2 34.2 88 -0.5 31
03:10 1026 30.3 856 25.28 1.2 34.1 89 -0.5 31.1
03:15 1027 30.33 856 25.28 1.1 34 90 -0.3 31.4
03:20 1027 30.33 856 25.28 1.1 33.9 90 -0.4 31.4
03:25 1027 30.33 856 25.28 0.9 33.7 91 -0.3 31.4
03:30 1027 30.33 856 25.28 0.6 33.1 92 -0.5 31.1
03:35 1027 30.33 856 25.28 0.6 33.1 93 -0.4 31.2
03:40 1027 30.33 856 25.28 0.5 32.9 94 -0.4 31.3
03:45 1027 30.33 856 25.28 0.4 32.7 95 -0.3 31.5
03:50 1027 30.33 856 25.28 0.1 32.2 97 -0.3 31.4
03:55 1027 30.33 856 25.28 0.1 32.1 97 -0.3 31.5
04:00 1027 30.33 856 25.28 0.1 32.1 98 -0.3 31.5
04:05 1027 30.33 856 25.28 0.2 32.3 98 -0.1 31.8
04:10 1027 30.33 856 25.28 0.4 32.7 97 0 32
04:15 1027 30.33 856 25.28 0.5 32.8 97 0 32.1
04:20 1027 30.33 856 25.28 0.5 32.9 96 -0 32
04:25 1027 30.33 856 25.28 0.5 32.9 96 -0 32
04:30 1027 30.33 856 25.28 0.5 32.8 96 -0.1 31.8
04:35 1027 30.33 856 25.28 0.5 32.8 96 -0.1 31.8
04:40 1027 30.33 856 25.28 0.5 32.8 96 -0.1 31.8
04:45 1027 30.33 857 25.31 0.5 32.8 96 -0.1 31.8
04:50 1027 30.33 857 25.31 0.5 32.8 96 -0.1 31.8
04:55 1027 30.33 857 25.31 0.4 32.7 96 -0.1 31.7
05:00 1027 30.33 857 25.31 0.4 32.8 96 -0.1 31.8
05:05 1027 30.33 857 25.31 0.4 32.7 96 -0.1 31.8
05:10 1027 30.33 857 25.31 0.4 32.7 96 -0.2 31.7
05:15 1028 30.36 857 25.31 0.2 32.4 97 -0.2 31.6
05:20 1028 30.36 857 25.31 0.2 32.3 97 -0.3 31.5
05:25 1028 30.36 857 25.31 0.1 32.1 97 -0.3 31.4
05:30 1028 30.36 857 25.31 -0.2 31.7 98 -0.5 31.1
05:35 1028 30.36 857 25.31 -0.2 31.6 98 -0.5 31.1
05:40 1028 30.36 857 25.31 -0.3 31.5 98 -0.5 31.1
05:45 1028 30.36 857 25.31 -0.3 31.5 99 -0.5 31.1
05:50 1028 30.36 857 25.31 -0.3 31.5 99 -0.4 31.3
05:55 1028 30.36 857 25.31 -0.2 31.7 99 -0.4 31.3
06:00 1028 30.36 857 25.31 -0.2 31.6 99 -0.4 31.2
06:05 1028 30.36 857 25.31 -0.2 31.7 99 -0.4 31.3
06:10 1028 30.36 857 25.31 -0.1 31.8 98 -0.4 31.3
06:15 1028 30.36 857 25.31 -0.2 31.7 98 -0.4 31.3
06:20 1028 30.36 857 25.31 -0.2 31.6 98 -0.4 31.2
06:25 1028 30.36 857 25.31 -0.2 31.6 98 -0.5 31.1
06:30 1028 30.36 857 25.31 -0.3 31.4 98 -0.6 31
06:35 1028 30.36 857 25.31 -0.2 31.6 98 -0.5 31.1
06:40 1028 30.36 857 25.31 -0.2 31.6 98 -0.5 31.1
06:45 1028 30.36 858 25.34 -0.2 31.6 98 -0.5 31.1
06:50 1028 30.36 858 25.34 -0.2 31.6 98 -0.5 31.1
06:55 1029 30.39 858 25.34 -0.1 31.8 98 -0.5 31.2
07:00 1029 30.39 858 25.34 -0 31.9 97 -0.5 31.1
07:05 1029 30.39 858 25.34 -0 31.9 96 -0.6 30.9
07:10 1029 30.39 858 25.34 -0 32 96 -0.6 30.9
07:15 1029 30.39 858 25.34 0.1 32.1 96 -0.5 31
07:20 1029 30.39 858 25.34 0.1 32.2 95 -0.6 31
07:25 1029 30.39 858 25.34 0.2 32.4 95 -0.5 31.1
07:30 1029 30.39 858 25.34 0.2 32.3 95 -0.6 31
07:35 1029 30.39 858 25.34 0 32.1 94 -0.8 30.6
07:40 1029 30.39 858 25.34 -0 32 95 -0.8 30.6
07:45 1029 30.39 858 25.34 0 32.1 94 -0.8 30.5
07:50 1029 30.39 858 25.34 0 32 94 -0.8 30.5
07:55 1029 30.39 858 25.34 0 32 94 -0.8 30.5
08:00 1029 30.39 858 25.34 0.2 32.3 93 -0.9 30.4
08:05 1029 30.39 858 25.34 0 32.1 92 -1.1 30.1
08:10 1029 30.39 858 25.34 -0.1 31.8 93 -1.1 30
08:15 1029 30.39 858 25.34 -0.1 31.8 92 -1.2 29.8
08:20 1029 30.39 858 25.34 -0.2 31.7 93 -1.2 29.9
08:25 1029 30.39 858 25.34 -0.1 31.8 92 -1.2 29.8
08:30 1029 30.39 859 25.37 -0.1 31.9 92 -1.2 29.8
08:35 1029 30.39 859 25.37 -0.1 31.7 92 -1.3 29.7
08:40 1029 30.39 859 25.37 -0.1 31.8 91 -1.4 29.5
08:45 1029 30.39 859 25.37 -0.1 31.8 91 -1.4 29.4
08:50 1029 30.39 859 25.37 -0.2 31.6 91 -1.5 29.3
08:55 1030 30.42 859 25.37 -0.2 31.6 91 -1.5 29.2
09:00 1030 30.42 859 25.37 -0.2 31.6 91 -1.6 29.1
09:05 1030 30.42 859 25.37 -0.3 31.5 90 -1.7 28.9
09:10 1030 30.42 859 25.37 -0.3 31.5 90 -1.8 28.8
09:15 1030 30.42 859 25.37 -0.1 31.7 89 -1.7 29
09:20 1030 30.42 859 25.37 0 32 88 -1.7 29
09:25 1030 30.42 859 25.37 0.3 32.5 87 -1.6 29.1
09:30 1030 30.42 859 25.37 0.5 32.9 85 -1.7 29
09:35 1030 30.42 859 25.37 1 33.8 85 -1.3 29.7
09:40 1030 30.42 859 25.37 1.4 34.5 81 -1.6 29.2
09:45 1030 30.42 859 25.37 1.5 34.6 81 -1.4 29.5
09:50 1030 30.42 859 25.37 1.8 35.2 80 -1.3 29.6
09:55 1030 30.42 860 25.4 2.1 35.8 79 -1.1 29.9
10:00 1030 30.42 860 25.4 2.2 36 79 -1.1 30
10:05 1030 30.42 860 25.4 2.1 35.9 80 -1 30.3
10:10 1031 30.45 860 25.4 2 35.6 80 -1.2 29.9
10:15 1031 30.45 860 25.4 2.1 35.7 80 -1 30.2
10:20 1031 30.45 860 25.4 2.2 35.9 79 -1 30.2
10:25 1031 30.45 860 25.4 2.1 35.8 81 -0.9 30.4
10:30 1031 30.45 860 25.4 2 35.7 81 -0.9 30.5
10:35 1031 30.45 860 25.4 2.1 35.8 81 -0.8 30.6
10:40 1031 30.45 860 25.4 2.2 35.9 82 -0.7 30.8
10:45 1031 30.45 860 25.4 2 35.6 83 -0.5 31
10:50 1031 30.45 860 25.4 1.4 34.4 86 -0.8 30.5
10:55 1031 30.45 860 25.4 1.2 34.2 86 -0.9 30.4
11:00 1031 30.45 860 25.4 1.1 33.9 88 -0.8 30.6
11:05 1031 30.45 860 25.4 0.9 33.7 88 -0.8 30.5
11:10 1031 30.45 860 25.4 1.1 33.9 88 -0.8 30.6
11:15 1031 30.45 860 25.4 1.5 34.6 86 -0.6 30.8
11:20 1031 30.45 860 25.4 2 35.6 82 -0.7 30.7
11:25 1031 30.45 860 25.4 3.4 38 73 -1 30.3
11:30 1031 30.45 860 25.4 4.3 39.7 70 -0.8 30.6
11:35 1031 30.45 860 25.4 3.9 39 73 -0.6 31
11:40 1031 30.45 860 25.4 3.8 38.9 69 -1.3 29.7
11:45 1031 30.45 860 25.4 3.4 38.2 73 -1 30.3
11:50 1031 30.45 860 25.4 3.2 37.7 72 -1.4 29.5
11:55 1031 30.45 860 25.4 3.6 38.5 70 -1.3 29.6
12:00 1031 30.45 860 25.4 4 39.3 68 -1.4 29.5
12:05 1031 30.45 860 25.4 3.9 39.1 68 -1.3 29.6
12:10 1031 30.45 860 25.4 3.7 38.6 69 -1.5 29.3
12:15 1031 30.45 860 25.4 4.3 39.8 67 -1.3 29.6
12:20 1031 30.45 860 25.4 4.6 40.2 68 -0.8 30.5
12:25 1031 30.45 860 25.4 5.1 41.2 60 -1.9 28.5
12:30 1031 30.45 860 25.4 5.8 42.5 60 -1.4 29.6
12:35 1031 30.45 860 25.4 6 42.7 59 -1.5 29.2
12:40 1030 30.42 860 25.4 5.6 42.2 60 -1.6 29.1
12:45 1030 30.42 860 25.4 5.3 41.5 62 -1.4 29.4
12:50 1030 30.42 860 25.4 5.5 41.9 61 -1.4 29.4
12:55 1030 30.42 860 25.4 5.8 42.5 58 -1.7 28.9
13:00 1030 30.42 859 25.37 5.8 42.5 60 -1.4 29.5
13:05 1030 30.42 859 25.37 6 42.8 58 -1.6 29.1
13:10 1030 30.42 859 25.37 5.8 42.4 60 -1.3 29.6
13:15 1030 30.42 859 25.37 5.1 41.1 61 -1.9 28.5
13:20 1030 30.42 859 25.37 5.1 41.1 59 -2.2 28.1
13:25 1030 30.42 859 25.37 4.8 40.7 60 -2.3 27.9
13:30 1030 30.42 859 25.37 4.8 40.7 59 -2.5 27.6
13:35 1030 30.42 859 25.37 4.6 40.3 60 -2.6 27.4
13:40 1030 30.42 859 25.37 5.1 41.2 58 -2.5 27.4
13:45 1030 30.42 859 25.37 5.1 41.1 57 -2.8 27
13:50 1030 30.42 859 25.37 5.1 41.1 57 -2.7 27.1
13:55 1030 30.42 859 25.37 5.1 41.2 57 -2.8 27
14:00 1030 30.42 859 25.37 4.9 40.7 58 -2.8 26.9
14:05 1030 30.42 859 25.37 5 41 56 -3.1 26.5
14:10 1030 30.42 859 25.37 5 41.1 56 -3.1 26.5
14:15 1030 30.42 859 25.37 5 41 56 -3 26.5
14:20 1030 30.42 859 25.37 4.8 40.6 56 -3.3 26.1
14:25 1030 30.42 859 25.37 5.4 41.7 56 -2.7 27.1
14:30 1029 30.39 859 25.37 5.5 41.8 55 -2.8 26.9
14:35 1029 30.39 859 25.37 5.5 41.9 55 -2.7 27.1
14:40 1029 30.39 858 25.34 5.6 42.1 54 -3 26.6
14:45 1029 30.39 858 25.34 5.8 42.5 53 -3 26.6
14:50 1029 30.39 859 25.37 6 42.9 53 -2.7 27.1
14:55 1029 30.39 859 25.37 6.1 43 51 -3.1 26.3
15:00 1029 30.39 858 25.34 5.7 42.3 54 -2.9 26.8
15:05 1029 30.39 858 25.34 6.4 43.5 52 -2.7 27.1
15:10 1029 30.39 858 25.34 6.5 43.8 51 -2.9 26.7
15:15 1029 30.39 858 25.34 6.9 44.4 50 -2.9 26.8
15:20 1029 30.39 858 25.34 6.8 44.2 52 -2.3 27.8
15:25 1029 30.39 858 25.34 6.6 43.9 51 -2.9 26.8
15:30 1029 30.39 858 25.34 6.6 43.9 51 -2.8 27
15:35 1029 30.39 858 25.34 6.4 43.5 52 -2.8 27
15:40 1029 30.39 858 25.34 5.9 42.7 52 -3.2 26.2
15:45 1029 30.39 859 25.37 6 42.8 52 -3 26.6
15:50 1029 30.39 859 25.37 5.9 42.7 51 -3.3 26.1
15:55 1029 30.39 859 25.37 5.7 42.3 52 -3.3 26
16:00 1029 30.39 859 25.37 5.1 41.1 54 -3.4 25.8
16:05 1029 30.39 859 25.37 4.3 39.8 58 -3.2 26.3
16:10 1029 30.39 859 25.37 3.9 39 60 -3.3 26.1
16:15 1029 30.39 859 25.37 3.9 39 60 -3.1 26.5
16:20 1029 30.39 859 25.37 3.5 38.3 61 -3.3 26.1
16:25 1029 30.39 859 25.37 3.4 38.1 62 -3.1 26.4
16:30 1029 30.39 859 25.37 3.3 38 62 -3.2 26.2
16:35 1030 30.42 859 25.37 3 37.4 67 -2.6 27.4
16:40 1030 30.42 859 25.37 2.5 36.5 69 -2.5 27.5
16:45 1030 30.42 859 25.37 2.4 36.3 68 -2.8 26.9
16:50 1030 30.42 859 25.37 2 35.6 72 -2.6 27.3
16:55 1030 30.42 859 25.37 1.2 34.2 76 -2.6 27.3
17:00 1029 30.39 859 25.37 0.8 33.5 77 -2.8 27
17:05 1029 30.39 859 25.37 0.9 33.6 77 -2.7 27.2
17:10 1030 30.42 859 25.37 0.9 33.7 76 -2.8 26.9
17:15 1030 30.42 859 25.37 0.9 33.5 78 -2.5 27.5
17:20 1030 30.42 859 25.37 0.4 32.7 79 -2.8 27
17:25 1030 30.42 859 25.37 0.5 32.9 78 -2.8 26.9
17:30 1030 30.42 859 25.37 0.8 33.4 77 -2.8 27
17:35 1030 30.42 859 25.37 0.8 33.5 77 -2.7 27.2
17:40 1030 30.42 859 25.37 0.7 33.2 78 -2.7 27.1
17:45 1030 30.42 859 25.37 0.5 33 78 -2.8 27
17:50 1030 30.42 859 25.37 0.3 32.5 80 -2.8 26.9
17:55 1030 30.42 859 25.37 0.1 32.2 80 -3 26.6
18:00 1030 30.42 859 25.37 0.4 32.6 78 -3 26.6
18:05 1030 30.42 859 25.37 0.5 32.8 78 -3 26.7
18:10 1030 30.42 859 25.37 0.2 32.4 79 -3 26.6
18:15 1030 30.42 859 25.37 -0.1 31.9 80 -3.2 26.3
18:20 1030 30.42 859 25.37 0 32.1 79 -3.2 26.2
18:25 1030 30.42 859 25.37 0.1 32.2 79 -3.1 26.4
18:30 1030 30.42 859 25.37 0.2 32.4 77 -3.3 26
18:35 1030 30.42 859 25.37 -0 31.9 78 -3.5 25.8
18:40 1030 30.42 859 25.37 -0.1 31.8 77 -3.6 25.5
18:45 1029 30.39 859 25.37 -0.1 31.8 78 -3.5 25.7
18:50 1029 30.39 859 25.37 -0.3 31.5 78 -3.7 25.3
18:55 1029 30.39 859 25.37 -0.3 31.5 78 -3.7 25.3
19:00 1029 30.39 859 25.37 -0.2 31.6 76 -3.9 25.1
19:05 1029 30.39 859 25.37 -0.1 31.9 76 -3.8 25.1
19:10 1029 30.39 859 25.37 -0 31.9 75 -3.9 25
19:15 1029 30.39 858 25.34 -0.3 31.4 76 -4 24.8
19:20 1029 30.39 858 25.34 -0.2 31.6 74 -4.3 24.3
19:25 1029 30.39 858 25.34 -0 31.9 74 -4.1 24.7
19:30 1029 30.39 858 25.34 0 32 73 -4.2 24.4
19:35 1029 30.39 858 25.34 0.1 32.2 73 -4.3 24.3
19:40 1029 30.39 858 25.34 0.1 32.2 72 -4.3 24.3
19:45 1029 30.39 858 25.34 -0.1 31.9 73 -4.3 24.2
19:50 1029 30.39 858 25.34 -0.5 31.1 76 -4.3 24.3
19:55 1029 30.39 858 25.34 -0.7 30.8 76 -4.5 24
20:00 1029 30.39 858 25.34 -0.9 30.3 77 -4.4 24.1
20:05 1029 30.39 858 25.34 -1.2 29.8 78 -4.6 23.7
20:10 1029 30.39 858 25.34 -1.4 29.5 78 -4.7 23.6
20:15 1029 30.39 858 25.34 -1.6 29.2 78 -4.9 23.3
20:20 1029 30.39 858 25.34 -1.5 29.2 77 -5.1 22.9
20:25 1029 30.39 858 25.34 -1.4 29.5 77 -5 23.1
20:30 1028 30.36 858 25.34 -1.4 29.6 76 -5.1 22.8
20:35 1028 30.36 858 25.34 -1.5 29.2 76 -5.2 22.6
20:40 1028 30.36 858 25.34 -1.3 29.6 73 -5.5 22.1
20:45 1028 30.36 858 25.34 -0.8 30.5 72 -5.3 22.5
20:50 1028 30.36 858 25.34 -1 30.2 73 -5.3 22.5
20:55 1028 30.36 858 25.34 -0.8 30.5 72 -5.3 22.4
21:00 1028 30.36 858 25.34 -0.9 30.4 72 -5.4 22.3
21:05 1028 30.36 858 25.34 -0.8 30.6 71 -5.4 22.4
21:10 1028 30.36 858 25.34 -0.9 30.4 72 -5.3 22.4
21:15 1028 30.36 857 25.31 -1.1 29.9 73 -5.4 22.2
21:20 1028 30.36 857 25.31 -0.9 30.4 71 -5.6 22
21:25 1028 30.36 857 25.31 -0.8 30.6 70 -5.5 22.1
21:30 1028 30.36 857 25.31 -0.8 30.5 72 -5.3 22.4
21:35 1028 30.36 857 25.31 -1.1 30 72 -5.5 22.2
21:40 1028 30.36 857 25.31 -1.4 29.5 73 -5.5 22
21:45 1028 30.36 857 25.31 -1.6 29.1 74 -5.6 22
21:50 1028 30.36 857 25.31 -1.7 29 75 -5.6 22
21:55 1028 30.36 857 25.31 -1.8 28.8 75 -5.7 21.7
22:00 1028 30.36 857 25.31 -1.6 29.1 74 -5.7 21.7
22:05 1028 30.36 857 25.31 -1.6 29.2 73 -5.7 21.7
22:10 1028 30.36 857 25.31 -1.5 29.2 73 -5.8 21.6
22:15 1028 30.36 857 25.31 -1.7 29 73 -5.8 21.5
22:20 1028 30.36 857 25.31 -1.6 29.1 73 -5.8 21.6
22:25 1028 30.36 857 25.31 -1.5 29.3 72 -5.9 21.5
22:30 1028 30.36 857 25.31 -1.7 29 74 -5.7 21.8
22:35 1028 30.36 857 25.31 -1.8 28.8 74 -5.8 21.6
22:40 1028 30.36 857 25.31 -1.7 29 74 -5.8 21.6
22:45 1028 30.36 857 25.31 -1.7 29 73 -5.9 21.4
22:50 1028 30.36 857 25.31 -1.6 29.1 73 -5.8 21.5
22:55 1028 30.36 857 25.31 -1.5 29.3 72 -5.8 21.5
23:00 1028 30.36 857 25.31 -1.6 29.2 73 -5.8 21.5
23:05 1028 30.36 857 25.31 -1.5 29.3 72 -5.8 21.5
23:10 1028 30.36 857 25.31 -1.6 29.1 74 -5.7 21.7
23:15 1028 30.36 857 25.31 -1.9 28.7 73 -6 21.1
23:20 1028 30.36 857 25.31 -1.5 29.3 72 -5.9 21.3
23:25 1028 30.36 857 25.31 -1.1 30.1 69 -6 21.2
23:30 1028 30.36 857 25.31 -0.8 30.6 69 -5.8 21.6
23:35 1028 30.36 857 25.31 -0.9 30.4 69 -5.8 21.5
23:40 1028 30.36 857 25.31 -0.9 30.4 70 -5.7 21.7
23:45 1028 30.36 857 25.31 -1.2 29.8 72 -5.7 21.7
23:50 1028 30.36 857 25.31 -1.6 29.1 72 -6 21.2
23:55 1028 30.36 857 25.31 -2 28.3 72 -6.4 20.5
24:00 1028 30.36 857 25.31 -2.9 26.8 76 -6.5 20.3